sensor_id;sensor_type;location;lat;lon;timestamp;pressure;altitude;pressure_sealevel;temperature;humidity
8398;BME280;4236;54.504;9.588;2022-07-31T00:00:32;101724.09;;;17.67;100.00
8398;BME280;4236;54.504;9.588;2022-07-31T00:02:59;101715.97;;;17.67;100.00
8398;BME280;4236;54.504;9.588;2022-07-31T00:05:28;101704.16;;;17.68;100.00
8398;BME280;4236;54.504;9.588;2022-07-31T00:07:57;101704.16;;;17.68;100.00
8398;BME280;4236;54.504;9.588;2022-07-31T00:10:24;101717.66;;;17.68;100.00
8398;BME280;4236;54.504;9.588;2022-07-31T00:12:52;101714.72;;;17.69;100.00
8398;BME280;4236;54.504;9.588;2022-07-31T00:15:20;101721.97;;;17.69;100.00
8398;BME280;4236;54.504;9.588;2022-07-31T00:17:48;101713.28;;;17.67;100.00
8398;BME280;4236;54.504;9.588;2022-07-31T00:20:16;101714.31;;;17.66;100.00
8398;BME280;4236;54.504;9.588;2022-07-31T00:22:46;101694.00;;;17.63;100.00
8398;BME280;4236;54.504;9.588;2022-07-31T00:25:15;101703.97;;;17.63;100.00
8398;BME280;4236;54.504;9.588;2022-07-31T00:27:43;101706.06;;;17.61;100.00
8398;BME280;4236;54.504;9.588;2022-07-31T00:30:11;101704.66;;;17.58;100.00
8398;BME280;4236;54.504;9.588;2022-07-31T00:32:39;101710.03;;;17.58;100.00
8398;BME280;4236;54.504;9.588;2022-07-31T00:35:08;101703.22;;;17.56;100.00
8398;BME280;4236;54.504;9.588;2022-07-31T00:37:38;101700.53;;;17.56;100.00
8398;BME280;4236;54.504;9.588;2022-07-31T00:40:10;101695.31;;;17.54;100.00
8398;BME280;4236;54.504;9.588;2022-07-31T00:42:38;101702.41;;;17.49;100.00
8398;BME280;4236;54.504;9.588;2022-07-31T00:45:07;101698.88;;;17.48;100.00
8398;BME280;4236;54.504;9.588;2022-07-31T00:47:38;101701.81;;;17.47;100.00
8398;BME280;4236;54.504;9.588;2022-07-31T00:50:07;101704.69;;;17.45;100.00
8398;BME280;4236;54.504;9.588;2022-07-31T00:52:35;101700.97;;;17.46;100.00
8398;BME280;4236;54.504;9.588;2022-07-31T00:55:03;101693.09;;;17.45;100.00
8398;BME280;4236;54.504;9.588;2022-07-31T00:57:33;101694.75;;;17.46;100.00
8398;BME280;4236;54.504;9.588;2022-07-31T01:00:00;101685.00;;;17.45;100.00
8398;BME280;4236;54.504;9.588;2022-07-31T01:02:29;101683.13;;;17.45;100.00
8398;BME280;4236;54.504;9.588;2022-07-31T01:04:56;101688.53;;;17.45;100.00
8398;BME280;4236;54.504;9.588;2022-07-31T01:07:24;101683.13;;;17.45;100.00
8398;BME280;4236;54.504;9.588;2022-07-31T01:09:52;101678.56;;;17.46;100.00
8398;BME280;4236;54.504;9.588;2022-07-31T01:12:25;101679.41;;;17.46;100.00
8398;BME280;4236;54.504;9.588;2022-07-31T01:14:57;101668.59;;;17.46;100.00
8398;BME280;4236;54.504;9.588;2022-07-31T01:17:29;101667.78;;;17.46;100.00
8398;BME280;4236;54.504;9.588;2022-07-31T01:19:57;101665.69;;;17.48;100.00
8398;BME280;4236;54.504;9.588;2022-07-31T01:22:44;101665.69;;;17.48;100.00
8398;BME280;4236;54.504;9.588;2022-07-31T01:25:29;101670.25;;;17.47;100.00
8398;BME280;4236;54.504;9.588;2022-07-31T01:28:03;101655.13;;;17.46;100.00
8398;BME280;4236;54.504;9.588;2022-07-31T01:30:40;101671.06;;;17.48;100.00
8398;BME280;4236;54.504;9.588;2022-07-31T01:33:13;101669.19;;;17.48;100.00
8398;BME280;4236;54.504;9.588;2022-07-31T01:35:46;101669.81;;;17.50;100.00
8398;BME280;4236;54.504;9.588;2022-07-31T01:38:19;101665.25;;;17.51;100.00
8398;BME280;4236;54.504;9.588;2022-07-31T01:40:53;101670.03;;;17.49;100.00
8398;BME280;4236;54.504;9.588;2022-07-31T01:43:25;101662.38;;;17.46;100.00
8398;BME280;4236;54.504;9.588;2022-07-31T01:45:58;101667.19;;;17.44;100.00
8398;BME280;4236;54.504;9.588;2022-07-31T01:48:27;101670.31;;;17.41;100.00
8398;BME280;4236;54.504;9.588;2022-07-31T01:50:59;101668.84;;;17.38;100.00
8398;BME280;4236;54.504;9.588;2022-07-31T01:53:28;101667.00;;;17.39;100.00
8398;BME280;4236;54.504;9.588;2022-07-31T01:55:57;101669.69;;;17.39;100.00
8398;BME280;4236;54.504;9.588;2022-07-31T01:58:33;101667.22;;;17.37;100.00
8398;BME280;4236;54.504;9.588;2022-07-31T02:01:03;101661.00;;;17.37;100.00
8398;BME280;4236;54.504;9.588;2022-07-31T02:03:33;101661.59;;;17.39;100.00
8398;BME280;4236;54.504;9.588;2022-07-31T02:06:12;101653.50;;;17.39;100.00
8398;BME280;4236;54.504;9.588;2022-07-31T02:08:42;101667.63;;;17.41;100.00
8398;BME280;4236;54.504;9.588;2022-07-31T02:11:12;101669.25;;;17.42;100.00
8398;BME280;4236;54.504;9.588;2022-07-31T02:13:40;101670.91;;;17.43;100.00
8398;BME280;4236;54.504;9.588;2022-07-31T02:16:10;101659.88;;;17.44;100.00
8398;BME280;4236;54.504;9.588;2022-07-31T02:18:38;101658.03;;;17.45;100.00
8398;BME280;4236;54.504;9.588;2022-07-31T02:21:06;101659.09;;;17.44;100.00
8398;BME280;4236;54.504;9.588;2022-07-31T02:23:35;101659.88;;;17.44;100.00
8398;BME280;4236;54.504;9.588;2022-07-31T02:26:04;101659.88;;;17.44;100.00
8398;BME280;4236;54.504;9.588;2022-07-31T02:28:34;101656.41;;;17.44;100.00
8398;BME280;4236;54.504;9.588;2022-07-31T02:31:05;101654.72;;;17.43;100.00
8398;BME280;4236;54.504;9.588;2022-07-31T02:33:38;101659.53;;;17.41;100.00
8398;BME280;4236;54.504;9.588;2022-07-31T02:36:08;101660.34;;;17.41;100.00
8398;BME280;4236;54.504;9.588;2022-07-31T02:38:38;101659.53;;;17.41;100.00
8398;BME280;4236;54.504;9.588;2022-07-31T02:41:08;101656.84;;;17.41;100.00
8398;BME280;4236;54.504;9.588;2022-07-31T02:43:37;101656.59;;;17.42;100.00
8398;BME280;4236;54.504;9.588;2022-07-31T02:46:06;101650.16;;;17.43;100.00
8398;BME280;4236;54.504;9.588;2022-07-31T02:48:35;101651.59;;;17.46;100.00
8398;BME280;4236;54.504;9.588;2022-07-31T02:51:05;101644.34;;;17.46;100.00
8398;BME280;4236;54.504;9.588;2022-07-31T02:53:33;101650.56;;;17.47;100.00
8398;BME280;4236;54.504;9.588;2022-07-31T02:56:04;101649.50;;;17.48;100.00
8398;BME280;4236;54.504;9.588;2022-07-31T02:58:38;101644.09;;;17.48;100.00
8398;BME280;4236;54.504;9.588;2022-07-31T03:01:07;101650.31;;;17.48;100.00
8398;BME280;4236;54.504;9.588;2022-07-31T03:03:35;101641.41;;;17.48;100.00
8398;BME280;4236;54.504;9.588;2022-07-31T03:06:04;101647.44;;;17.50;100.00
8398;BME280;4236;54.504;9.588;2022-07-31T03:08:33;101644.94;;;17.48;100.00
8398;BME280;4236;54.504;9.588;2022-07-31T03:11:01;101637.88;;;17.47;100.00
8398;BME280;4236;54.504;9.588;2022-07-31T03:13:29;101639.78;;;17.47;100.00
8398;BME280;4236;54.504;9.588;2022-07-31T03:15:58;101633.75;;;17.45;100.00
8398;BME280;4236;54.504;9.588;2022-07-31T03:18:27;101633.16;;;17.43;100.00
8398;BME280;4236;54.504;9.588;2022-07-31T03:20:56;101634.00;;;17.43;100.00
8398;BME280;4236;54.504;9.588;2022-07-31T03:23:26;101625.28;;;17.41;100.00
8398;BME280;4236;54.504;9.588;2022-07-31T03:26:01;101630.66;;;17.41;100.00
8398;BME280;4236;54.504;9.588;2022-07-31T03:28:29;101635.84;;;17.43;100.00
8398;BME280;4236;54.504;9.588;2022-07-31T03:30:57;101627.78;;;17.43;100.00
8398;BME280;4236;54.504;9.588;2022-07-31T03:33:24;101633.16;;;17.43;100.00
8398;BME280;4236;54.504;9.588;2022-07-31T03:35:52;101626.72;;;17.44;100.00
8398;BME280;4236;54.504;9.588;2022-07-31T03:38:20;101631.28;;;17.43;100.00
8398;BME280;4236;54.504;9.588;2022-07-31T03:41:09;101621.78;;;17.41;100.00
8398;BME280;4236;54.504;9.588;2022-07-31T03:43:37;101630.91;;;17.40;100.00
8398;BME280;4236;54.504;9.588;2022-07-31T03:46:14;101626.53;;;17.39;100.00
8398;BME280;4236;54.504;9.588;2022-07-31T03:48:42;101624.53;;;17.34;100.00
8398;BME280;4236;54.504;9.588;2022-07-31T03:51:11;101630.34;;;17.31;100.00
8398;BME280;4236;54.504;9.588;2022-07-31T03:53:39;101632.81;;;17.33;100.00
8398;BME280;4236;54.504;9.588;2022-07-31T03:56:09;101630.50;;;17.36;100.00
8398;BME280;4236;54.504;9.588;2022-07-31T03:58:38;101631.94;;;17.39;100.00
8398;BME280;4236;54.504;9.588;2022-07-31T04:01:07;101635.25;;;17.41;100.00
8398;BME280;4236;54.504;9.588;2022-07-31T04:03:38;101644.09;;;17.48;100.00
8398;BME280;4236;54.504;9.588;2022-07-31T04:06:05;101636.59;;;17.56;100.00
8398;BME280;4236;54.504;9.588;2022-07-31T04:08:33;101641.28;;;17.67;100.00
8398;BME280;4236;54.504;9.588;2022-07-31T04:11:01;101640.16;;;17.75;100.00
8398;BME280;4236;54.504;9.588;2022-07-31T04:13:29;101646.72;;;17.86;100.00
8398;BME280;4236;54.504;9.588;2022-07-31T04:15:57;101652.66;;;17.94;100.00
8398;BME280;4236;54.504;9.588;2022-07-31T04:18:25;101646.13;;;18.02;100.00
8398;BME280;4236;54.504;9.588;2022-07-31T04:20:52;101635.50;;;18.07;100.00
8398;BME280;4236;54.504;9.588;2022-07-31T04:23:20;101640.22;;;18.11;100.00
8398;BME280;4236;54.504;9.588;2022-07-31T04:25:57;101641.44;;;18.15;100.00
8398;BME280;4236;54.504;9.588;2022-07-31T04:28:25;101639.69;;;18.21;100.00
8398;BME280;4236;54.504;9.588;2022-07-31T04:30:54;101642.53;;;18.26;100.00
8398;BME280;4236;54.504;9.588;2022-07-31T04:33:22;101640.44;;;18.28;100.00
8398;BME280;4236;54.504;9.588;2022-07-31T04:35:50;101637.06;;;18.33;100.00
8398;BME280;4236;54.504;9.588;2022-07-31T04:38:18;101638.72;;;18.34;100.00
8398;BME280;4236;54.504;9.588;2022-07-31T04:40:47;101651.53;;;18.38;100.00
8398;BME280;4236;54.504;9.588;2022-07-31T04:43:14;101644.25;;;18.39;100.00
8398;BME280;4236;54.504;9.588;2022-07-31T04:45:43;101649.59;;;18.45;100.00
8398;BME280;4236;54.504;9.588;2022-07-31T04:48:12;101640.63;;;18.51;100.00
8398;BME280;4236;54.504;9.588;2022-07-31T04:50:40;101637.81;;;18.58;100.00
8398;BME280;4236;54.504;9.588;2022-07-31T04:53:07;101641.63;;;18.68;100.00
8398;BME280;4236;54.504;9.588;2022-07-31T04:55:35;101648.59;;;18.76;100.00
8398;BME280;4236;54.504;9.588;2022-07-31T04:58:03;101639.53;;;19.42;100.00
8398;BME280;4236;54.504;9.588;2022-07-31T05:00:30;101644.00;;;19.48;100.00
8398;BME280;4236;54.504;9.588;2022-07-31T05:02:58;101643.31;;;19.52;97.83
8398;BME280;4236;54.504;9.588;2022-07-31T05:05:27;101637.56;;;19.60;96.34
8398;BME280;4236;54.504;9.588;2022-07-31T05:07:54;101635.94;;;19.71;96.37
8398;BME280;4236;54.504;9.588;2022-07-31T05:10:22;101638.38;;;19.84;96.27
8398;BME280;4236;54.504;9.588;2022-07-31T05:13:03;101642.16;;;19.95;94.64
8398;BME280;4236;54.504;9.588;2022-07-31T05:15:31;101634.38;;;20.10;94.74
8398;BME280;4236;54.504;9.588;2022-07-31T05:17:59;101635.97;;;20.34;93.70
8398;BME280;4236;54.504;9.588;2022-07-31T05:20:27;101636.94;;;20.68;94.14
8398;BME280;4236;54.504;9.588;2022-07-31T05:22:55;101628.88;;;21.63;93.19
8398;BME280;4236;54.504;9.588;2022-07-31T05:25:23;101630.47;;;22.57;89.77
8398;BME280;4236;54.504;9.588;2022-07-31T05:27:50;101618.81;;;23.79;81.01
8398;BME280;4236;54.504;9.588;2022-07-31T05:30:19;101613.47;;;23.94;72.97
8398;BME280;4236;54.504;9.588;2022-07-31T05:32:56;101619.84;;;23.67;69.66
8398;BME280;4236;54.504;9.588;2022-07-31T05:35:23;101627.59;;;23.49;70.37
8398;BME280;4236;54.504;9.588;2022-07-31T05:37:52;101626.03;;;23.58;73.71
8398;BME280;4236;54.504;9.588;2022-07-31T05:40:20;101621.59;;;24.36;68.89
8398;BME280;4236;54.504;9.588;2022-07-31T05:42:48;101608.44;;;25.05;68.00
8398;BME280;4236;54.504;9.588;2022-07-31T05:45:16;101608.97;;;25.57;66.24
8398;BME280;4236;54.504;9.588;2022-07-31T05:47:43;101608.63;;;25.99;63.85
8398;BME280;4236;54.504;9.588;2022-07-31T05:50:11;101606.47;;;27.04;62.65
8398;BME280;4236;54.504;9.588;2022-07-31T05:52:39;101609.16;;;27.77;56.72
8398;BME280;4236;54.504;9.588;2022-07-31T05:55:09;101595.88;;;28.55;56.99
8398;BME280;4236;54.504;9.588;2022-07-31T05:57:37;101607.91;;;29.47;56.05
8398;BME280;4236;54.504;9.588;2022-07-31T06:00:05;101606.56;;;30.18;55.18
8398;BME280;4236;54.504;9.588;2022-07-31T06:02:34;101594.06;;;29.39;49.47
8398;BME280;4236;54.504;9.588;2022-07-31T06:05:02;101610.66;;;28.78;50.88
8398;BME280;4236;54.504;9.588;2022-07-31T06:07:30;101607.09;;;28.35;52.27
8398;BME280;4236;54.504;9.588;2022-07-31T06:09:59;101601.44;;;27.79;53.31
8398;BME280;4236;54.504;9.588;2022-07-31T06:12:28;101594.44;;;27.05;50.28
8398;BME280;4236;54.504;9.588;2022-07-31T06:14:55;101602.75;;;26.41;54.09
8398;BME280;4236;54.504;9.588;2022-07-31T06:17:23;101609.78;;;26.57;53.36
8398;BME280;4236;54.504;9.588;2022-07-31T06:20:10;101605.66;;;27.95;53.91
8398;BME280;4236;54.504;9.588;2022-07-31T06:22:38;101593.50;;;29.04;51.68
8398;BME280;4236;54.504;9.588;2022-07-31T06:25:07;101594.34;;;29.83;48.80
8398;BME280;4236;54.504;9.588;2022-07-31T06:27:38;101595.00;;;30.57;47.11
8398;BME280;4236;54.504;9.588;2022-07-31T06:30:08;101597.69;;;31.06;46.65
8398;BME280;4236;54.504;9.588;2022-07-31T06:32:36;101594.56;;;31.44;39.66
8398;BME280;4236;54.504;9.588;2022-07-31T06:35:05;101591.16;;;31.69;42.42
8398;BME280;4236;54.504;9.588;2022-07-31T06:37:33;101599.44;;;31.24;42.87
8398;BME280;4236;54.504;9.588;2022-07-31T06:40:01;101600.13;;;31.83;41.40
8398;BME280;4236;54.504;9.588;2022-07-31T06:42:28;101601.63;;;32.54;38.66
8398;BME280;4236;54.504;9.588;2022-07-31T06:44:57;101592.41;;;33.10;39.26
8398;BME280;4236;54.504;9.588;2022-07-31T06:47:25;101583.19;;;33.61;39.75
8398;BME280;4236;54.504;9.588;2022-07-31T06:49:53;101580.84;;;33.25;39.89
8398;BME280;4236;54.504;9.588;2022-07-31T06:52:21;101598.03;;;32.37;38.84
8398;BME280;4236;54.504;9.588;2022-07-31T06:54:49;101592.75;;;31.70;38.96
8398;BME280;4236;54.504;9.588;2022-07-31T06:57:17;101579.03;;;30.81;38.86
8398;BME280;4236;54.504;9.588;2022-07-31T06:59:44;101581.81;;;30.04;39.60
8398;BME280;4236;54.504;9.588;2022-07-31T07:02:13;101580.09;;;29.35;40.73
8398;BME280;4236;54.504;9.588;2022-07-31T07:04:41;101575.22;;;28.39;40.09
8398;BME280;4236;54.504;9.588;2022-07-31T07:07:28;101572.63;;;27.81;43.33
8398;BME280;4236;54.504;9.588;2022-07-31T07:09:57;101567.50;;;27.75;44.07
8398;BME280;4236;54.504;9.588;2022-07-31T07:12:25;101565.34;;;27.95;44.80
8398;BME280;4236;54.504;9.588;2022-07-31T07:14:53;101575.53;;;27.90;44.29
8398;BME280;4236;54.504;9.588;2022-07-31T07:17:22;101565.22;;;28.29;44.84
8398;BME280;4236;54.504;9.588;2022-07-31T07:19:55;101569.16;;;28.42;43.64
8398;BME280;4236;54.504;9.588;2022-07-31T07:22:22;101577.03;;;28.48;42.46
8398;BME280;4236;54.504;9.588;2022-07-31T07:24:57;101561.69;;;29.17;40.91
8398;BME280;4236;54.504;9.588;2022-07-31T07:27:25;101566.84;;;29.83;41.42
8398;BME280;4236;54.504;9.588;2022-07-31T07:29:53;101565.47;;;30.71;38.82
8398;BME280;4236;54.504;9.588;2022-07-31T07:32:20;101564.19;;;30.91;40.00
8398;BME280;4236;54.504;9.588;2022-07-31T07:34:49;101568.25;;;30.71;37.66
8398;BME280;4236;54.504;9.588;2022-07-31T07:37:26;101566.44;;;30.66;38.33
8398;BME280;4236;54.504;9.588;2022-07-31T07:39:53;101569.31;;;30.61;37.03
8398;BME280;4236;54.504;9.588;2022-07-31T07:42:21;101567.69;;;30.47;37.87
8398;BME280;4236;54.504;9.588;2022-07-31T07:44:49;101567.81;;;30.55;37.73
8398;BME280;4236;54.504;9.588;2022-07-31T07:47:16;101570.56;;;30.55;38.40
8398;BME280;4236;54.504;9.588;2022-07-31T07:49:44;101559.06;;;30.40;38.40
8398;BME280;4236;54.504;9.588;2022-07-31T07:52:13;101558.34;;;29.66;38.18
8398;BME280;4236;54.504;9.588;2022-07-31T07:54:41;101558.94;;;29.49;38.57
8398;BME280;4236;54.504;9.588;2022-07-31T07:57:13;101551.09;;;29.43;38.49
8398;BME280;4236;54.504;9.588;2022-07-31T07:59:41;101545.31;;;29.58;38.98
8398;BME280;4236;54.504;9.588;2022-07-31T08:02:09;101545.44;;;29.80;38.58
8398;BME280;4236;54.504;9.588;2022-07-31T08:04:37;101544.94;;;29.92;39.40
8398;BME280;4236;54.504;9.588;2022-07-31T08:07:05;101548.53;;;29.92;38.00
8398;BME280;4236;54.504;9.588;2022-07-31T08:09:35;101543.25;;;29.36;37.86
8398;BME280;4236;54.504;9.588;2022-07-31T08:12:04;101550.03;;;28.93;39.62
8398;BME280;4236;54.504;9.588;2022-07-31T08:14:32;101544.28;;;28.76;39.43
8398;BME280;4236;54.504;9.588;2022-07-31T08:17:00;101551.28;;;28.63;39.52
8398;BME280;4236;54.504;9.588;2022-07-31T08:19:29;101550.94;;;28.70;40.00
8398;BME280;4236;54.504;9.588;2022-07-31T08:21:56;101548.53;;;28.02;40.18
8398;BME280;4236;54.504;9.588;2022-07-31T08:24:26;101558.31;;;27.89;39.97
8398;BME280;4236;54.504;9.588;2022-07-31T08:26:55;101556.06;;;27.91;40.70
8398;BME280;4236;54.504;9.588;2022-07-31T08:29:40;101556.34;;;27.90;40.19
8398;BME280;4236;54.504;9.588;2022-07-31T08:32:08;101555.50;;;27.94;40.79
8398;BME280;4236;54.504;9.588;2022-07-31T08:34:36;101549.59;;;27.82;40.36
8398;BME280;4236;54.504;9.588;2022-07-31T08:37:07;101562.63;;;27.43;41.97
8398;BME280;4236;54.504;9.588;2022-07-31T08:39:55;101561.00;;;27.42;41.75
8398;BME280;4236;54.504;9.588;2022-07-31T08:42:24;101557.97;;;27.10;42.18
8398;BME280;4236;54.504;9.588;2022-07-31T08:44:52;101549.75;;;27.15;41.68
8398;BME280;4236;54.504;9.588;2022-07-31T08:47:21;101542.13;;;27.07;42.84
8398;BME280;4236;54.504;9.588;2022-07-31T08:49:50;101541.25;;;26.77;42.48
8398;BME280;4236;54.504;9.588;2022-07-31T08:52:20;101539.88;;;26.85;43.04
8398;BME280;4236;54.504;9.588;2022-07-31T08:54:52;101548.81;;;26.52;44.48
8398;BME280;4236;54.504;9.588;2022-07-31T08:57:20;101544.41;;;26.56;44.71
8398;BME280;4236;54.504;9.588;2022-07-31T08:59:49;101548.78;;;26.57;43.97
8398;BME280;4236;54.504;9.588;2022-07-31T09:02:17;101537.13;;;26.80;44.24
8398;BME280;4236;54.504;9.588;2022-07-31T09:04:45;101538.22;;;27.18;43.88
8398;BME280;4236;54.504;9.588;2022-07-31T09:07:18;101535.38;;;27.57;43.98
8398;BME280;4236;54.504;9.588;2022-07-31T09:09:45;101535.41;;;27.99;43.10
8398;BME280;4236;54.504;9.588;2022-07-31T09:12:26;101534.44;;;28.32;42.08
8398;BME280;4236;54.504;9.588;2022-07-31T09:15:00;101528.72;;;28.29;42.30
8398;BME280;4236;54.504;9.588;2022-07-31T09:17:32;101536.38;;;28.32;42.37
8398;BME280;4236;54.504;9.588;2022-07-31T09:20:01;101528.00;;;28.61;41.53
8398;BME280;4236;54.504;9.588;2022-07-31T09:22:30;101528.47;;;28.49;41.71
8398;BME280;4236;54.504;9.588;2022-07-31T09:25:08;101527.47;;;28.58;41.45
8398;BME280;4236;54.504;9.588;2022-07-31T09:27:38;101531.00;;;28.64;42.39
8398;BME280;4236;54.504;9.588;2022-07-31T09:30:08;101528.47;;;28.68;41.36
8398;BME280;4236;54.504;9.588;2022-07-31T09:32:36;101533.03;;;28.53;41.03
8398;BME280;4236;54.504;9.588;2022-07-31T09:35:08;101527.84;;;28.71;41.31
8398;BME280;4236;54.504;9.588;2022-07-31T09:37:37;101523.06;;;28.95;39.35
8398;BME280;4236;54.504;9.588;2022-07-31T09:40:06;101518.63;;;29.13;39.94
8398;BME280;4236;54.504;9.588;2022-07-31T09:42:36;101522.88;;;29.24;40.46
8398;BME280;4236;54.504;9.588;2022-07-31T09:45:20;101513.13;;;29.31;39.47
8398;BME280;4236;54.504;9.588;2022-07-31T09:48:02;101514.25;;;29.44;38.94
8398;BME280;4236;54.504;9.588;2022-07-31T09:50:31;101518.72;;;29.40;40.00
8398;BME280;4236;54.504;9.588;2022-07-31T09:52:59;101517.50;;;29.46;39.93
8398;BME280;4236;54.504;9.588;2022-07-31T09:55:28;101516.69;;;29.45;38.54
8398;BME280;4236;54.504;9.588;2022-07-31T09:57:56;101518.19;;;29.24;38.87
8398;BME280;4236;54.504;9.588;2022-07-31T10:00:26;101514.25;;;29.44;39.17
8398;BME280;4236;54.504;9.588;2022-07-31T10:02:55;101504.09;;;29.44;39.51
8398;BME280;4236;54.504;9.588;2022-07-31T10:05:24;101502.88;;;29.50;38.47
8398;BME280;4236;54.504;9.588;2022-07-31T10:07:55;101511.19;;;29.32;37.86
8398;BME280;4236;54.504;9.588;2022-07-31T10:10:23;101497.66;;;29.49;38.69
8398;BME280;4236;54.504;9.588;2022-07-31T10:12:53;101501.75;;;29.38;39.82
8398;BME280;4236;54.504;9.588;2022-07-31T10:15:22;101502.53;;;29.25;39.23
8398;BME280;4236;54.504;9.588;2022-07-31T10:17:53;101500.13;;;29.18;38.04
8398;BME280;4236;54.504;9.588;2022-07-31T10:20:23;101497.91;;;29.20;38.72
8398;BME280;4236;54.504;9.588;2022-07-31T10:22:54;101494.81;;;29.27;38.73
8398;BME280;4236;54.504;9.588;2022-07-31T10:25:24;101497.09;;;29.20;37.81
8398;BME280;4236;54.504;9.588;2022-07-31T10:27:52;101490.63;;;29.43;37.71
8398;BME280;4236;54.504;9.588;2022-07-31T10:30:23;101489.72;;;29.61;37.55
8398;BME280;4236;54.504;9.588;2022-07-31T10:32:55;101491.88;;;29.91;38.10
8398;BME280;4236;54.504;9.588;2022-07-31T10:35:24;101489.53;;;29.85;37.26
8398;BME280;4236;54.504;9.588;2022-07-31T10:37:56;101485.97;;;29.98;37.13
8398;BME280;4236;54.504;9.588;2022-07-31T10:40:28;101484.06;;;30.21;36.07
8398;BME280;4236;54.504;9.588;2022-07-31T10:43:15;101483.16;;;30.25;35.57
8398;BME280;4236;54.504;9.588;2022-07-31T10:45:47;101469.19;;;30.57;36.76
8398;BME280;4236;54.504;9.588;2022-07-31T10:48:17;101469.34;;;30.83;36.44
8398;BME280;4236;54.504;9.588;2022-07-31T10:50:46;101464.50;;;31.02;36.38
8398;BME280;4236;54.504;9.588;2022-07-31T10:53:15;101456.03;;;31.30;34.85
8398;BME280;4236;54.504;9.588;2022-07-31T10:55:43;101459.03;;;31.11;34.79
8398;BME280;4236;54.504;9.588;2022-07-31T10:58:12;101460.03;;;31.15;35.95
8398;BME280;4236;54.504;9.588;2022-07-31T11:00:41;101456.22;;;31.02;35.57
8398;BME280;4236;54.504;9.588;2022-07-31T11:03:13;101450.59;;;30.85;35.28
8398;BME280;4236;54.504;9.588;2022-07-31T11:05:53;101447.66;;;30.82;35.97
8398;BME280;4236;54.504;9.588;2022-07-31T11:08:39;101446.22;;;30.62;35.55
8398;BME280;4236;54.504;9.588;2022-07-31T11:11:06;101441.63;;;30.80;36.29
8398;BME280;4236;54.504;9.588;2022-07-31T11:13:44;101435.78;;;30.50;35.44
8398;BME280;4236;54.504;9.588;2022-07-31T11:16:12;101436.53;;;30.29;35.17
8398;BME280;4236;54.504;9.588;2022-07-31T11:18:39;101430.69;;;30.22;35.10
8398;BME280;4236;54.504;9.588;2022-07-31T11:21:09;101429.88;;;30.21;36.35
8398;BME280;4236;54.504;9.588;2022-07-31T11:23:57;101425.59;;;30.15;36.50
8398;BME280;4236;54.504;9.588;2022-07-31T11:26:31;101414.78;;;30.18;35.95
8398;BME280;4236;54.504;9.588;2022-07-31T11:29:07;101418.09;;;30.07;37.00
8398;BME280;4236;54.504;9.588;2022-07-31T11:31:58;101410.94;;;29.84;35.97
8398;BME280;4236;54.504;9.588;2022-07-31T11:34:26;101408.69;;;29.86;36.42
8398;BME280;4236;54.504;9.588;2022-07-31T11:36:55;101407.97;;;29.80;36.70
8398;BME280;4236;54.504;9.588;2022-07-31T11:39:22;101406.13;;;29.76;37.18
8398;BME280;4236;54.504;9.588;2022-07-31T11:42:02;101418.34;;;29.70;37.91
8398;BME280;4236;54.504;9.588;2022-07-31T11:44:33;101414.00;;;29.55;37.91
8398;BME280;4236;54.504;9.588;2022-07-31T11:47:00;101406.88;;;29.40;37.89
8398;BME280;4236;54.504;9.588;2022-07-31T11:49:59;101400.63;;;29.21;38.65
8398;BME280;4236;54.504;9.588;2022-07-31T11:52:28;101408.19;;;29.43;38.84
8398;BME280;4236;54.504;9.588;2022-07-31T11:55:04;101400.34;;;29.63;38.56
8398;BME280;4236;54.504;9.588;2022-07-31T11:57:35;101403.69;;;29.60;38.63
8398;BME280;4236;54.504;9.588;2022-07-31T12:00:18;101410.88;;;29.48;39.15
8398;BME280;4236;54.504;9.588;2022-07-31T12:02:55;101405.31;;;29.75;39.16
8398;BME280;4236;54.504;9.588;2022-07-31T12:05:23;101402.75;;;29.79;39.46
8398;BME280;4236;54.504;9.588;2022-07-31T12:08:06;101406.44;;;29.74;38.57
8398;BME280;4236;54.504;9.588;2022-07-31T12:10:34;101397.63;;;29.99;38.39
8398;BME280;4236;54.504;9.588;2022-07-31T12:13:02;101395.31;;;29.93;39.05
8398;BME280;4236;54.504;9.588;2022-07-31T12:15:30;101395.00;;;29.94;37.75
8398;BME280;4236;54.504;9.588;2022-07-31T12:18:01;101387.19;;;29.88;37.36
8398;BME280;4236;54.504;9.588;2022-07-31T12:20:31;101378.25;;;29.82;37.33
8398;BME280;4236;54.504;9.588;2022-07-31T12:23:04;101387.06;;;29.93;37.27
8398;BME280;4236;54.504;9.588;2022-07-31T12:25:41;101381.06;;;29.91;37.19
8398;BME280;4236;54.504;9.588;2022-07-31T12:28:12;101376.22;;;29.74;37.67
8398;BME280;4236;54.504;9.588;2022-07-31T12:30:40;101374.50;;;29.64;37.46
8398;BME280;4236;54.504;9.588;2022-07-31T12:33:10;101372.16;;;29.72;37.42
8398;BME280;4236;54.504;9.588;2022-07-31T12:35:39;101363.72;;;29.54;36.06
8398;BME280;4236;54.504;9.588;2022-07-31T12:38:22;101359.97;;;29.37;36.11
8398;BME280;4236;54.504;9.588;2022-07-31T12:41:11;101365.09;;;29.30;37.30
8398;BME280;4236;54.504;9.588;2022-07-31T12:43:39;101366.69;;;29.17;37.81
8398;BME280;4236;54.504;9.588;2022-07-31T12:46:20;101364.94;;;28.94;37.11
8398;BME280;4236;54.504;9.588;2022-07-31T12:48:49;101358.72;;;28.75;36.78
8398;BME280;4236;54.504;9.588;2022-07-31T12:51:17;101357.25;;;28.64;36.87
8398;BME280;4236;54.504;9.588;2022-07-31T12:54:05;101352.09;;;28.43;37.68
8398;BME280;4236;54.504;9.588;2022-07-31T12:56:36;101356.69;;;28.34;37.48
8398;BME280;4236;54.504;9.588;2022-07-31T12:59:05;101356.84;;;28.24;37.71
8398;BME280;4236;54.504;9.588;2022-07-31T13:01:33;101350.19;;;28.12;38.15
8398;BME280;4236;54.504;9.588;2022-07-31T13:04:02;101349.97;;;28.08;38.49
8398;BME280;4236;54.504;9.588;2022-07-31T13:06:33;101356.31;;;28.03;37.96
8398;BME280;4236;54.504;9.588;2022-07-31T13:09:01;101351.06;;;27.88;37.99
8398;BME280;4236;54.504;9.588;2022-07-31T13:11:29;101341.22;;;27.87;38.34
8398;BME280;4236;54.504;9.588;2022-07-31T13:14:15;101338.09;;;27.75;38.40
8398;BME280;4236;54.504;9.588;2022-07-31T13:16:43;101334.13;;;27.68;38.68
8398;BME280;4236;54.504;9.588;2022-07-31T13:19:11;101336.34;;;27.66;38.38
8398;BME280;4236;54.504;9.588;2022-07-31T13:21:39;101328.78;;;27.58;38.72
8398;BME280;4236;54.504;9.588;2022-07-31T13:24:15;101329.59;;;27.58;38.77